sensor_id;sensor_type;location;lat;lon;timestamp;pressure;altitude;pressure_sealevel;temperature;humidity
85317;BME280;75721;52.330;9.772;2024-02-21T00:01:03;101720.38;;;8.17;100.00
85317;BME280;75721;52.330;9.772;2024-02-21T00:03:29;101711.78;;;8.10;100.00
85317;BME280;75721;52.330;9.772;2024-02-21T00:05:54;101732.44;;;8.21;100.00
85317;BME280;75721;52.330;9.772;2024-02-21T00:08:19;101722.00;;;8.18;100.00
85317;BME280;75721;52.330;9.772;2024-02-21T00:10:44;101711.13;;;8.25;100.00
85317;BME280;75721;52.330;9.772;2024-02-21T00:13:10;101719.69;;;8.20;100.00
85317;BME280;75721;52.330;9.772;2024-02-21T00:15:35;101715.84;;;8.12;100.00
85317;BME280;75721;52.330;9.772;2024-02-21T00:18:00;101707.50;;;8.12;100.00
85317;BME280;75721;52.330;9.772;2024-02-21T00:20:25;101699.03;;;8.21;100.00
85317;BME280;75721;52.330;9.772;2024-02-21T00:22:51;101690.09;;;8.15;100.00
85317;BME280;75721;52.330;9.772;2024-02-21T00:25:16;101694.84;;;8.15;100.00
85317;BME280;75721;52.330;9.772;2024-02-21T00:27:42;101691.84;;;8.20;100.00
85317;BME280;75721;52.330;9.772;2024-02-21T00:30:08;101684.19;;;8.17;100.00
85317;BME280;75721;52.330;9.772;2024-02-21T00:32:33;101696.13;;;8.17;100.00
85317;BME280;75721;52.330;9.772;2024-02-21T00:35:01;101684.53;;;8.15;100.00
85317;BME280;75721;52.330;9.772;2024-02-21T00:37:27;101679.78;;;8.16;100.00
85317;BME280;75721;52.330;9.772;2024-02-21T00:39:53;101675.38;;;8.27;100.00
85317;BME280;75721;52.330;9.772;2024-02-21T00:42:19;101661.81;;;8.25;100.00
85317;BME280;75721;52.330;9.772;2024-02-21T00:44:44;101674.91;;;8.25;100.00
85317;BME280;75721;52.330;9.772;2024-02-21T00:47:10;101671.00;;;8.26;100.00
85317;BME280;75721;52.330;9.772;2024-02-21T00:49:35;101666.56;;;8.25;100.00
85317;BME280;75721;52.330;9.772;2024-02-21T00:52:00;101665.94;;;8.19;100.00
85317;BME280;75721;52.330;9.772;2024-02-21T00:54:26;101659.13;;;8.29;100.00
85317;BME280;75721;52.330;9.772;2024-02-21T00:56:51;101661.69;;;8.22;100.00
85317;BME280;75721;52.330;9.772;2024-02-21T00:59:18;101658.69;;;8.27;100.00
85317;BME280;75721;52.330;9.772;2024-02-21T01:01:43;101646.03;;;8.29;100.00
85317;BME280;75721;52.330;9.772;2024-02-21T01:04:12;101636.28;;;8.35;99.22
85317;BME280;75721;52.330;9.772;2024-02-21T01:06:37;101636.06;;;8.28;100.00
85317;BME280;75721;52.330;9.772;2024-02-21T01:09:02;101637.91;;;8.24;100.00
85317;BME280;75721;52.330;9.772;2024-02-21T01:11:27;101639.63;;;8.29;100.00
85317;BME280;75721;52.330;9.772;2024-02-21T01:13:53;101640.22;;;8.22;100.00
85317;BME280;75721;52.330;9.772;2024-02-21T01:16:18;101642.88;;;8.31;99.85
85317;BME280;75721;52.330;9.772;2024-02-21T01:18:43;101630.69;;;8.23;100.00
85317;BME280;75721;52.330;9.772;2024-02-21T01:21:09;101613.03;;;8.19;100.00
85317;BME280;75721;52.330;9.772;2024-02-21T01:23:35;101614.34;;;8.22;100.00
85317;BME280;75721;52.330;9.772;2024-02-21T01:26:01;101627.78;;;8.20;100.00
85317;BME280;75721;52.330;9.772;2024-02-21T01:28:27;101620.69;;;8.34;98.35
85317;BME280;75721;52.330;9.772;2024-02-21T01:30:52;101628.84;;;8.39;98.24
85317;BME280;75721;52.330;9.772;2024-02-21T01:33:17;101623.13;;;8.36;99.02
85317;BME280;75721;52.330;9.772;2024-02-21T01:35:43;101612.00;;;8.36;98.50
85317;BME280;75721;52.330;9.772;2024-02-21T01:38:08;101595.97;;;8.45;97.70
85317;BME280;75721;52.330;9.772;2024-02-21T01:40:34;101606.63;;;8.43;96.79
85317;BME280;75721;52.330;9.772;2024-02-21T01:42:59;101604.41;;;8.48;97.15
85317;BME280;75721;52.330;9.772;2024-02-21T01:45:24;101605.94;;;8.46;96.58
85317;BME280;75721;52.330;9.772;2024-02-21T01:47:50;101604.31;;;8.45;97.79
85317;BME280;75721;52.330;9.772;2024-02-21T01:50:16;101604.75;;;8.47;96.47
85317;BME280;75721;52.330;9.772;2024-02-21T01:52:43;101600.69;;;8.56;95.69
85317;BME280;75721;52.330;9.772;2024-02-21T01:55:13;101591.03;;;8.54;96.28
85317;BME280;75721;52.330;9.772;2024-02-21T01:57:40;101589.22;;;8.46;97.02
85317;BME280;75721;52.330;9.772;2024-02-21T02:00:07;101588.06;;;8.47;97.02
85317;BME280;75721;52.330;9.772;2024-02-21T02:02:37;101579.00;;;8.50;96.28
85317;BME280;75721;52.330;9.772;2024-02-21T02:05:03;101582.03;;;8.45;97.35
85317;BME280;75721;52.330;9.772;2024-02-21T02:07:29;101578.78;;;8.43;97.54
85317;BME280;75721;52.330;9.772;2024-02-21T02:09:54;101561.38;;;8.46;96.38
85317;BME280;75721;52.330;9.772;2024-02-21T02:12:20;101568.19;;;8.48;96.72
85317;BME280;75721;52.330;9.772;2024-02-21T02:14:46;101565.75;;;8.47;96.96
85317;BME280;75721;52.330;9.772;2024-02-21T02:17:11;101572.63;;;8.49;96.34
85317;BME280;75721;52.330;9.772;2024-02-21T02:19:37;101562.75;;;8.52;95.73
85317;BME280;75721;52.330;9.772;2024-02-21T02:22:09;101553.22;;;8.53;96.42
85317;BME280;75721;52.330;9.772;2024-02-21T02:24:38;101544.84;;;8.53;95.33
85317;BME280;75721;52.330;9.772;2024-02-21T02:27:04;101542.75;;;8.62;94.12
85317;BME280;75721;52.330;9.772;2024-02-21T02:29:32;101537.41;;;8.57;95.08
85317;BME280;75721;52.330;9.772;2024-02-21T02:31:58;101534.75;;;8.48;96.63
85317;BME280;75721;52.330;9.772;2024-02-21T02:34:23;101531.38;;;8.55;95.54
85317;BME280;75721;52.330;9.772;2024-02-21T02:36:48;101518.25;;;8.55;95.76
85317;BME280;75721;52.330;9.772;2024-02-21T02:39:14;101515.81;;;8.54;94.65
85317;BME280;75721;52.330;9.772;2024-02-21T02:41:39;101512.31;;;8.57;96.06
85317;BME280;75721;52.330;9.772;2024-02-21T02:44:05;101513.75;;;8.51;95.34
85317;BME280;75721;52.330;9.772;2024-02-21T02:46:30;101512.25;;;8.53;96.00
85317;BME280;75721;52.330;9.772;2024-02-21T02:48:55;101509.31;;;8.62;93.71
85317;BME280;75721;52.330;9.772;2024-02-21T02:51:20;101509.72;;;8.64;93.89
85317;BME280;75721;52.330;9.772;2024-02-21T02:53:46;101506.75;;;8.57;95.64
85317;BME280;75721;52.330;9.772;2024-02-21T02:56:15;101503.59;;;8.58;94.57
85317;BME280;75721;52.330;9.772;2024-02-21T02:58:41;101496.31;;;8.54;95.50
85317;BME280;75721;52.330;9.772;2024-02-21T03:01:07;101492.81;;;8.57;94.21
85317;BME280;75721;52.330;9.772;2024-02-21T03:03:32;101492.56;;;8.62;93.51
85317;BME280;75721;52.330;9.772;2024-02-21T03:05:57;101483.31;;;8.58;94.14
85317;BME280;75721;52.330;9.772;2024-02-21T03:08:23;101477.81;;;8.61;93.35
85317;BME280;75721;52.330;9.772;2024-02-21T03:10:48;101473.78;;;8.59;94.16
85317;BME280;75721;52.330;9.772;2024-02-21T03:13:13;101469.38;;;8.58;94.55
85317;BME280;75721;52.330;9.772;2024-02-21T03:15:39;101469.19;;;8.51;95.33
85317;BME280;75721;52.330;9.772;2024-02-21T03:18:04;101443.13;;;8.59;94.19
85317;BME280;75721;52.330;9.772;2024-02-21T03:20:29;101444.66;;;8.56;94.45
85317;BME280;75721;52.330;9.772;2024-02-21T03:22:55;101438.97;;;8.53;94.58
85317;BME280;75721;52.330;9.772;2024-02-21T03:25:20;101431.78;;;8.52;93.81
85317;BME280;75721;52.330;9.772;2024-02-21T03:27:45;101428.81;;;8.45;95.45
85317;BME280;75721;52.330;9.772;2024-02-21T03:30:11;101418.03;;;8.43;95.79
85317;BME280;75721;52.330;9.772;2024-02-21T03:32:37;101408.59;;;8.48;94.84
85317;BME280;75721;52.330;9.772;2024-02-21T03:35:04;101401.13;;;8.52;94.30
85317;BME280;75721;52.330;9.772;2024-02-21T03:37:29;101412.09;;;8.45;96.10
85317;BME280;75721;52.330;9.772;2024-02-21T03:39:55;101406.59;;;8.48;94.54
85317;BME280;75721;52.330;9.772;2024-02-21T03:42:20;101402.91;;;8.44;95.59
85317;BME280;75721;52.330;9.772;2024-02-21T03:44:45;101395.25;;;8.41;96.42
85317;BME280;75721;52.330;9.772;2024-02-21T03:47:11;101390.88;;;8.40;96.14
85317;BME280;75721;52.330;9.772;2024-02-21T03:49:37;101390.78;;;8.37;96.51
85317;BME280;75721;52.330;9.772;2024-02-21T03:52:02;101399.50;;;8.35;96.46
85317;BME280;75721;52.330;9.772;2024-02-21T03:54:28;101398.13;;;8.29;96.97
85317;BME280;75721;52.330;9.772;2024-02-21T03:56:53;101406.41;;;8.26;98.23
85317;BME280;75721;52.330;9.772;2024-02-21T03:59:18;101410.31;;;8.25;98.30
85317;BME280;75721;52.330;9.772;2024-02-21T04:01:43;101408.81;;;8.27;97.64
85317;BME280;75721;52.330;9.772;2024-02-21T04:04:10;101417.66;;;8.17;99.45
85317;BME280;75721;52.330;9.772;2024-02-21T04:06:35;101422.88;;;8.19;98.30
85317;BME280;75721;52.330;9.772;2024-02-21T04:09:01;101426.34;;;8.28;96.13
85317;BME280;75721;52.330;9.772;2024-02-21T04:11:26;101423.31;;;8.21;97.43
85317;BME280;75721;52.330;9.772;2024-02-21T04:13:52;101443.94;;;8.32;95.98
85317;BME280;75721;52.330;9.772;2024-02-21T04:16:17;101433.72;;;8.36;95.35
85317;BME280;75721;52.330;9.772;2024-02-21T04:18:43;101447.22;;;8.34;95.94
85317;BME280;75721;52.330;9.772;2024-02-21T04:21:09;101449.63;;;8.35;95.75
85317;BME280;75721;52.330;9.772;2024-02-21T04:23:34;101456.47;;;8.38;95.19
85317;BME280;75721;52.330;9.772;2024-02-21T04:26:00;101451.25;;;8.36;95.88
85317;BME280;75721;52.330;9.772;2024-02-21T04:28:25;101445.53;;;8.45;94.26
85317;BME280;75721;52.330;9.772;2024-02-21T04:30:50;101433.00;;;8.39;95.39
85317;BME280;75721;52.330;9.772;2024-02-21T04:33:16;101441.84;;;8.41;95.03
85317;BME280;75721;52.330;9.772;2024-02-21T04:35:41;101439.06;;;8.41;95.66
85317;BME280;75721;52.330;9.772;2024-02-21T04:38:06;101439.06;;;8.41;94.88
85317;BME280;75721;52.330;9.772;2024-02-21T04:40:31;101429.72;;;8.49;94.39
85317;BME280;75721;52.330;9.772;2024-02-21T04:42:57;101432.84;;;8.47;94.75
85317;BME280;75721;52.330;9.772;2024-02-21T04:45:23;101433.56;;;8.44;95.47
85317;BME280;75721;52.330;9.772;2024-02-21T04:47:48;101434.09;;;8.50;94.14
85317;BME280;75721;52.330;9.772;2024-02-21T04:50:13;101431.16;;;8.58;93.34
85317;BME280;75721;52.330;9.772;2024-02-21T04:52:39;101436.66;;;8.55;93.84
85317;BME280;75721;52.330;9.772;2024-02-21T04:55:04;101434.09;;;8.50;94.90
85317;BME280;75721;52.330;9.772;2024-02-21T04:57:29;101444.66;;;8.56;93.75
85317;BME280;75721;52.330;9.772;2024-02-21T04:59:55;101444.19;;;8.54;94.04
85317;BME280;75721;52.330;9.772;2024-02-21T05:02:20;101447.59;;;8.48;95.02
85317;BME280;75721;52.330;9.772;2024-02-21T05:04:47;101444.09;;;8.51;94.63
85317;BME280;75721;52.330;9.772;2024-02-21T05:07:13;101438.19;;;8.52;94.12
85317;BME280;75721;52.330;9.772;2024-02-21T05:09:38;101427.75;;;8.49;95.20
85317;BME280;75721;52.330;9.772;2024-02-21T05:12:03;101432.97;;;8.51;94.66
85317;BME280;75721;52.330;9.772;2024-02-21T05:14:29;101436.53;;;8.51;94.22
85317;BME280;75721;52.330;9.772;2024-02-21T05:16:54;101420.09;;;8.46;95.21
85317;BME280;75721;52.330;9.772;2024-02-21T05:19:19;101412.53;;;8.47;95.29
85317;BME280;75721;52.330;9.772;2024-02-21T05:21:45;101417.66;;;8.45;95.40
85317;BME280;75721;52.330;9.772;2024-02-21T05:24:10;101422.06;;;8.46;95.90
85317;BME280;75721;52.330;9.772;2024-02-21T05:26:37;101427.75;;;8.49;95.14
85317;BME280;75721;52.330;9.772;2024-02-21T05:29:03;101430.88;;;8.48;94.76
85317;BME280;75721;52.330;9.772;2024-02-21T05:34:15;101410.84;;;8.42;95.59
85317;BME280;75721;52.330;9.772;2024-02-21T05:36:41;101410.00;;;8.42;96.04
85317;BME280;75721;52.330;9.772;2024-02-21T05:39:06;101418.66;;;8.37;97.07
85317;BME280;75721;52.330;9.772;2024-02-21T05:41:31;101406.88;;;8.43;95.14
85317;BME280;75721;52.330;9.772;2024-02-21T05:43:56;101412.09;;;8.45;95.12
85317;BME280;75721;52.330;9.772;2024-02-21T05:46:22;101406.06;;;8.43;94.59
85317;BME280;75721;52.330;9.772;2024-02-21T05:48:47;101412.34;;;8.40;95.79
85317;BME280;75721;52.330;9.772;2024-02-21T05:51:12;101413.06;;;8.37;96.66
85317;BME280;75721;52.330;9.772;2024-02-21T05:53:37;101410.66;;;8.35;96.13
85317;BME280;75721;52.330;9.772;2024-02-21T05:56:12;101408.41;;;8.41;95.09
85317;BME280;75721;52.330;9.772;2024-02-21T05:58:39;101406.31;;;8.38;95.83
85317;BME280;75721;52.330;9.772;2024-02-21T06:01:04;101402.63;;;8.34;96.53
85317;BME280;75721;52.330;9.772;2024-02-21T06:03:33;101406.56;;;8.33;96.63
85317;BME280;75721;52.330;9.772;2024-02-21T06:05:59;101404.25;;;8.35;96.28
85317;BME280;75721;52.330;9.772;2024-02-21T06:08:24;101410.09;;;8.30;96.95
85317;BME280;75721;52.330;9.772;2024-02-21T06:10:50;101415.66;;;8.30;97.34
85317;BME280;75721;52.330;9.772;2024-02-21T06:13:19;101398.59;;;8.31;96.98
85317;BME280;75721;52.330;9.772;2024-02-21T06:15:46;101397.06;;;8.34;95.67
85317;BME280;75721;52.330;9.772;2024-02-21T06:18:11;101389.41;;;8.31;96.33
85317;BME280;75721;52.330;9.772;2024-02-21T06:20:37;101391.03;;;8.32;96.50
85317;BME280;75721;52.330;9.772;2024-02-21T06:23:05;101392.91;;;8.28;96.69
85317;BME280;75721;52.330;9.772;2024-02-21T06:25:30;101384.22;;;8.29;96.42
85317;BME280;75721;52.330;9.772;2024-02-21T06:27:55;101386.72;;;8.34;96.07
85317;BME280;75721;52.330;9.772;2024-02-21T06:30:21;101388.94;;;8.29;97.24
85317;BME280;75721;52.330;9.772;2024-02-21T06:32:46;101384.28;;;8.33;95.69
85317;BME280;75721;52.330;9.772;2024-02-21T06:35:11;101378.72;;;8.33;96.36
85317;BME280;75721;52.330;9.772;2024-02-21T06:37:36;101380.25;;;8.30;96.79
85317;BME280;75721;52.330;9.772;2024-02-21T06:40:03;101383.03;;;8.30;96.34
85317;BME280;75721;52.330;9.772;2024-02-21T06:42:29;101373.16;;;8.33;95.54
85317;BME280;75721;52.330;9.772;2024-02-21T06:44:54;101383.38;;;8.29;96.98
85317;BME280;75721;52.330;9.772;2024-02-21T06:47:21;101376.19;;;8.28;96.59
85317;BME280;75721;52.330;9.772;2024-02-21T06:49:50;101377.38;;;8.27;97.19
85317;BME280;75721;52.330;9.772;2024-02-21T06:52:19;101381.78;;;8.28;96.34
85317;BME280;75721;52.330;9.772;2024-02-21T06:54:49;101374.94;;;8.25;97.28
85317;BME280;75721;52.330;9.772;2024-02-21T06:57:14;101383.66;;;8.24;97.85
85317;BME280;75721;52.330;9.772;2024-02-21T06:59:41;101385.25;;;8.25;97.52
85317;BME280;75721;52.330;9.772;2024-02-21T07:02:07;101386.44;;;8.24;97.86
85317;BME280;75721;52.330;9.772;2024-02-21T07:04:32;101380.88;;;8.24;97.47
85317;BME280;75721;52.330;9.772;2024-02-21T07:06:58;101386.44;;;8.24;97.06
85317;BME280;75721;52.330;9.772;2024-02-21T07:09:23;101400.38;;;8.24;98.03
85317;BME280;75721;52.330;9.772;2024-02-21T07:11:48;101381.78;;;8.28;97.01
85317;BME280;75721;52.330;9.772;2024-02-21T07:14:18;101379.69;;;8.25;97.36
85317;BME280;75721;52.330;9.772;2024-02-21T07:16:43;101385.72;;;8.27;97.00
85317;BME280;75721;52.330;9.772;2024-02-21T07:19:08;101393.63;;;8.25;97.50
85317;BME280;75721;52.330;9.772;2024-02-21T07:21:34;101391.31;;;8.27;96.67
85317;BME280;75721;52.330;9.772;2024-02-21T07:23:59;101379.81;;;8.28;96.32
85317;BME280;75721;52.330;9.772;2024-02-21T07:26:25;101372.25;;;8.29;96.56
85317;BME280;75721;52.330;9.772;2024-02-21T07:28:50;101379.47;;;8.30;97.08
85317;BME280;75721;52.330;9.772;2024-02-21T07:31:15;101365.59;;;8.33;96.13
85317;BME280;75721;52.330;9.772;2024-02-21T07:33:41;101377.22;;;8.35;97.30
85317;BME280;75721;52.330;9.772;2024-02-21T07:36:07;101370.47;;;8.36;96.25
85317;BME280;75721;52.330;9.772;2024-02-21T07:38:33;101377.28;;;8.39;96.69
85317;BME280;75721;52.330;9.772;2024-02-21T07:40:59;101370.56;;;8.40;96.18
85317;BME280;75721;52.330;9.772;2024-02-21T07:43:24;101379.84;;;8.44;96.27
85317;BME280;75721;52.330;9.772;2024-02-21T07:45:51;101379.09;;;8.47;96.54
85317;BME280;75721;52.330;9.772;2024-02-21T07:48:18;101391.06;;;8.47;96.31
85317;BME280;75721;52.330;9.772;2024-02-21T07:50:44;101392.31;;;8.50;95.71
85317;BME280;75721;52.330;9.772;2024-02-21T07:53:09;101391.88;;;8.48;96.31
85317;BME280;75721;52.330;9.772;2024-02-21T07:55:34;101392.66;;;8.48;95.51
85317;BME280;75721;52.330;9.772;2024-02-21T07:58:00;101378.38;;;8.50;96.25
85317;BME280;75721;52.330;9.772;2024-02-21T08:00:25;101382.00;;;8.50;95.18
85317;BME280;75721;52.330;9.772;2024-02-21T08:02:50;101384.41;;;8.52;95.74
85317;BME280;75721;52.330;9.772;2024-02-21T08:05:16;101380.03;;;8.51;95.93
85317;BME280;75721;52.330;9.772;2024-02-21T08:07:41;101376.06;;;8.52;97.20
85317;BME280;75721;52.330;9.772;2024-02-21T08:10:07;101373.28;;;8.52;97.00
85317;BME280;75721;52.330;9.772;2024-02-21T08:12:33;101375.72;;;8.53;96.86
85317;BME280;75721;52.330;9.772;2024-02-21T08:14:59;101380.47;;;8.53;95.63
85317;BME280;75721;52.330;9.772;2024-02-21T08:17:24;101382.53;;;8.56;94.94
85317;BME280;75721;52.330;9.772;2024-02-21T08:19:49;101371.84;;;8.58;95.72
85317;BME280;75721;52.330;9.772;2024-02-21T08:22:15;101377.84;;;8.60;95.51
85317;BME280;75721;52.330;9.772;2024-02-21T08:24:40;101375.97;;;8.64;94.65
85317;BME280;75721;52.330;9.772;2024-02-21T08:27:05;101375.19;;;8.63;95.25
85317;BME280;75721;52.330;9.772;2024-02-21T08:29:31;101376.44;;;8.66;95.25
85317;BME280;75721;52.330;9.772;2024-02-21T08:31:56;101365.72;;;8.68;94.05
85317;BME280;75721;52.330;9.772;2024-02-21T08:34:22;101372.94;;;8.69;95.07
85317;BME280;75721;52.330;9.772;2024-02-21T08:36:47;101367.78;;;8.71;94.52
85317;BME280;75721;52.330;9.772;2024-02-21T08:39:12;101363.47;;;8.73;92.73
85317;BME280;75721;52.330;9.772;2024-02-21T08:41:42;101348.47;;;8.78;94.03
85317;BME280;75721;52.330;9.772;2024-02-21T08:44:07;101342.88;;;8.78;94.13
85317;BME280;75721;52.330;9.772;2024-02-21T08:46:33;101346.56;;;8.82;93.16
85317;BME280;75721;52.330;9.772;2024-02-21T08:48:58;101351.88;;;8.87;92.74
85317;BME280;75721;52.330;9.772;2024-02-21T08:51:23;101344.84;;;8.93;91.52
85317;BME280;75721;52.330;9.772;2024-02-21T08:53:49;101338.28;;;9.01;92.57
85317;BME280;75721;52.330;9.772;2024-02-21T08:56:15;101324.78;;;9.03;90.86
85317;BME280;75721;52.330;9.772;2024-02-21T08:58:41;101325.22;;;9.05;90.77
85317;BME280;75721;52.330;9.772;2024-02-21T09:01:07;101324.94;;;9.10;92.84
85317;BME280;75721;52.330;9.772;2024-02-21T09:03:36;101319.81;;;9.12;91.78
85317;BME280;75721;52.330;9.772;2024-02-21T09:06:01;101309.91;;;9.15;91.67
85317;BME280;75721;52.330;9.772;2024-02-21T09:08:27;101327.47;;;9.15;90.22
85317;BME280;75721;52.330;9.772;2024-02-21T09:10:52;101307.56;;;9.17;91.34
85317;BME280;75721;52.330;9.772;2024-02-21T09:13:18;101310.44;;;9.20;89.48
85317;BME280;75721;52.330;9.772;2024-02-21T09:15:43;101313.38;;;9.27;89.06
85317;BME280;75721;52.330;9.772;2024-02-21T09:18:09;101313.53;;;9.34;88.46
85317;BME280;75721;52.330;9.772;2024-02-21T09:20:34;101302.63;;;9.45;87.48
85317;BME280;75721;52.330;9.772;2024-02-21T09:22:59;101315.69;;;9.60;88.21
85317;BME280;75721;52.330;9.772;2024-02-21T09:25:25;101300.69;;;9.68;88.56
85317;BME280;75721;52.330;9.772;2024-02-21T09:27:50;101296.22;;;9.82;87.94
85317;BME280;75721;52.330;9.772;2024-02-21T09:30:17;101295.91;;;9.87;87.15
85317;BME280;75721;52.330;9.772;2024-02-21T09:32:42;101299.44;;;9.84;85.08
85317;BME280;75721;52.330;9.772;2024-02-21T09:35:07;101283.78;;;9.99;86.64
85317;BME280;75721;52.330;9.772;2024-02-21T09:37:33;101291.66;;;9.93;85.71
85317;BME280;75721;52.330;9.772;2024-02-21T09:39:58;101292.31;;;10.06;85.37
85317;BME280;75721;52.330;9.772;2024-02-21T09:42:37;101287.25;;;10.11;85.24
85317;BME280;75721;52.330;9.772;2024-02-21T09:45:07;101291.34;;;10.17;84.76
85317;BME280;75721;52.330;9.772;2024-02-21T09:48:14;101282.47;;;10.12;83.73
85317;BME280;75721;52.330;9.772;2024-02-21T09:50:45;101280.63;;;10.00;81.29
85317;BME280;75721;52.330;9.772;2024-02-21T09:53:12;101287.16;;;10.08;82.60
85317;BME280;75721;52.330;9.772;2024-02-21T09:55:39;101293.72;;;9.96;80.69
85317;BME280;75721;52.330;9.772;2024-02-21T09:58:07;101294.94;;;9.99;81.78
85317;BME280;75721;52.330;9.772;2024-02-21T10:00:32;101289.06;;;10.04;82.04
85317;BME280;75721;52.330;9.772;2024-02-21T10:02:58;101283.84;;;10.02;83.03
85317;BME280;75721;52.330;9.772;2024-02-21T10:05:24;101286.13;;;9.97;81.55
85317;BME280;75721;52.330;9.772;2024-02-21T10:07:51;101287.53;;;9.87;81.09
85317;BME280;75721;52.330;9.772;2024-02-21T10:10:16;101288.34;;;9.88;81.47
85317;BME280;75721;52.330;9.772;2024-02-21T10:12:53;101288.34;;;9.88;80.99
85317;BME280;75721;52.330;9.772;2024-02-21T10:15:29;101284.31;;;9.85;80.76
85317;BME280;75721;52.330;9.772;2024-02-21T10:17:59;101283.50;;;9.85;81.15
85317;BME280;75721;52.330;9.772;2024-02-21T10:20:25;101261.34;;;9.95;82.35
85317;BME280;75721;52.330;9.772;2024-02-21T10:23:04;101263.72;;;9.93;81.88
85317;BME280;75721;52.330;9.772;2024-02-21T10:25:36;101265.47;;;10.01;81.45
85317;BME280;75721;52.330;9.772;2024-02-21T10:28:08;101266.16;;;9.95;81.41
85317;BME280;75721;52.330;9.772;2024-02-21T10:30:33;101263.00;;;9.96;81.09
85317;BME280;75721;52.330;9.772;2024-02-21T10:32:59;101255.16;;;10.05;82.37
85317;BME280;75721;52.330;9.772;2024-02-21T10:35:32;101247.31;;;10.11;80.19
85317;BME280;75721;52.330;9.772;2024-02-21T10:37:58;101246.56;;;10.14;80.81
85317;BME280;75721;52.330;9.772;2024-02-21T10:40:30;101242.66;;;10.18;82.00
85317;BME280;75721;52.330;9.772;2024-02-21T10:43:00;101227.34;;;10.31;81.96
85317;BME280;75721;52.330;9.772;2024-02-21T10:45:32;101221.34;;;10.33;82.98
85317;BME280;75721;52.330;9.772;2024-02-21T10:48:11;101218.19;;;10.34;83.93
85317;BME280;75721;52.330;9.772;2024-02-21T10:50:56;101214.38;;;10.46;81.33
85317;BME280;75721;52.330;9.772;2024-02-21T10:56:22;101210.84;;;10.49;80.71
85317;BME280;75721;52.330;9.772;2024-02-21T10:58:48;101200.63;;;10.60;80.56
85317;BME280;75721;52.330;9.772;2024-02-21T11:01:14;101198.66;;;10.60;78.88
85317;BME280;75721;52.330;9.772;2024-02-21T11:03:42;101206.38;;;10.44;77.10
85317;BME280;75721;52.330;9.772;2024-02-21T11:06:10;101209.63;;;10.46;77.66
85317;BME280;75721;52.330;9.772;2024-02-21T11:08:36;101190.66;;;10.59;78.33
85317;BME280;75721;52.330;9.772;2024-02-21T11:11:04;101187.78;;;10.55;77.46
85317;BME280;75721;52.330;9.772;2024-02-21T11:13:37;101184.84;;;10.45;77.08
85317;BME280;75721;52.330;9.772;2024-02-21T11:16:10;101178.66;;;10.58;76.88
85317;BME280;75721;52.330;9.772;2024-02-21T11:18:37;101171.66;;;10.71;76.32
85317;BME280;75721;52.330;9.772;2024-02-21T11:21:03;101160.13;;;10.76;77.91
85317;BME280;75721;52.330;9.772;2024-02-21T11:23:31;101164.84;;;10.98;78.05
85317;BME280;75721;52.330;9.772;2024-02-21T11:26:19;101155.25;;;11.32;78.12
85317;BME280;75721;52.330;9.772;2024-02-21T11:28:44;101145.84;;;11.14;74.50
85317;BME280;75721;52.330;9.772;2024-02-21T11:31:13;101142.19;;;11.43;75.63
85317;BME280;75721;52.330;9.772;2024-02-21T11:33:42;101139.81;;;11.45;74.92
85317;BME280;75721;52.330;9.772;2024-02-21T11:36:09;101135.88;;;11.50;73.95
85317;BME280;75721;52.330;9.772;2024-02-21T11:38:34;101124.59;;;11.43;75.56
85317;BME280;75721;52.330;9.772;2024-02-21T11:41:00;101126.16;;;11.40;74.31
85317;BME280;75721;52.330;9.772;2024-02-21T11:43:25;101137.16;;;11.23;73.36
85317;BME280;75721;52.330;9.772;2024-02-21T11:45:51;101131.56;;;11.23;73.88
85317;BME280;75721;52.330;9.772;2024-02-21T11:48:23;101117.53;;;11.19;75.42
85317;BME280;75721;52.330;9.772;2024-02-21T11:50:53;101111.47;;;11.14;74.56
85317;BME280;75721;52.330;9.772;2024-02-21T11:53:20;101113.34;;;11.03;76.47
85317;BME280;75721;52.330;9.772;2024-02-21T11:55:46;101119.38;;;10.75;73.47
85317;BME280;75721;52.330;9.772;2024-02-21T11:58:11;101099.16;;;10.85;75.50
85317;BME280;75721;52.330;9.772;2024-02-21T12:00:40;101109.50;;;10.85;73.87
85317;BME280;75721;52.330;9.772;2024-02-21T12:03:05;101085.81;;;11.08;76.07
85317;BME280;75721;52.330;9.772;2024-02-21T12:05:31;101084.31;;;11.14;73.50
85317;BME280;75721;52.330;9.772;2024-02-21T12:07:57;101068.72;;;11.13;74.30
85317;BME280;75721;52.330;9.772;2024-02-21T12:10:23;101066.13;;;11.34;74.86
85317;BME280;75721;52.330;9.772;2024-02-21T12:12:49;101057.75;;;11.34;75.12
85317;BME280;75721;52.330;9.772;2024-02-21T12:15:17;101056.31;;;11.54;75.26
85317;BME280;75721;52.330;9.772;2024-02-21T12:17:43;101063.47;;;11.48;71.85
85317;BME280;75721;52.330;9.772;2024-02-21T12:20:09;101062.50;;;11.70;74.54
85317;BME280;75721;52.330;9.772;2024-02-21T12:22:38;101055.25;;;11.62;70.19
85317;BME280;75721;52.330;9.772;2024-02-21T12:25:04;101039.28;;;11.70;72.73
85317;BME280;75721;52.330;9.772;2024-02-21T12:27:29;101048.44;;;11.63;72.91
85317;BME280;75721;52.330;9.772;2024-02-21T12:29:55;101038.97;;;11.38;70.35
85317;BME280;75721;52.330;9.772;2024-02-21T12:32:23;101039.28;;;11.70;71.14
85317;BME280;75721;52.330;9.772;2024-02-21T12:34:48;101038.63;;;11.87;73.36
85317;BME280;75721;52.330;9.772;2024-02-21T12:37:14;101038.66;;;11.91;69.60
85317;BME280;75721;52.330;9.772;2024-02-21T12:39:41;101026.88;;;11.67;70.84
85317;BME280;75721;52.330;9.772;2024-02-21T12:42:06;101030.50;;;11.71;70.74
85317;BME280;75721;52.330;9.772;2024-02-21T12:44:31;101021.84;;;11.91;71.20
85317;BME280;75721;52.330;9.772;2024-02-21T12:46:57;101024.22;;;11.85;69.89
85317;BME280;75721;52.330;9.772;2024-02-21T12:49:22;101019.81;;;11.88;70.43
85317;BME280;75721;52.330;9.772;2024-02-21T12:51:49;101014.56;;;11.82;72.64
85317;BME280;75721;52.330;9.772;2024-02-21T12:54:14;101024.84;;;11.64;71.06
85317;BME280;75721;52.330;9.772;2024-02-21T12:56:40;101013.53;;;11.57;72.98
85317;BME280;75721;52.330;9.772;2024-02-21T12:59:06;101010.22;;;11.41;69.83